createdAt,value
2022-08-12T06:23:57.857Z,3.10
2022-08-12T06:26:35.486Z,3.10
2022-08-12T06:30:06.953Z,3.30
2022-08-12T06:32:15.644Z,2.72
2022-08-12T06:35:26.917Z,2.88
2022-08-12T06:37:57.234Z,2.78
2022-08-12T06:40:49.388Z,3.15
2022-08-12T06:43:29.388Z,2.85
2022-08-12T06:46:27.740Z,3.30
2022-08-12T06:49:04.758Z,3.13
2022-08-12T06:51:42.019Z,2.90
2022-08-12T06:54:35.663Z,3.22
2022-08-12T06:58:05.937Z,3.17
2022-08-12T07:00:16.379Z,2.90
2022-08-12T07:02:56.037Z,2.72
2022-08-12T07:05:34.661Z,2.70
2022-08-12T07:08:15.934Z,2.80
2022-08-12T07:10:59.526Z,2.67
2022-08-12T07:14:12.033Z,2.83
2022-08-12T07:16:54.304Z,2.40
2022-08-12T07:19:40.511Z,3.33
2022-08-12T07:22:23.630Z,3.10
2022-08-12T07:25:13.927Z,3.15
2022-08-12T07:28:23.747Z,3.17
2022-08-12T07:31:09.438Z,3.70
2022-08-12T07:33:47.311Z,3.85
2022-08-12T07:36:26.702Z,3.63
2022-08-12T07:39:04.649Z,3.22
2022-08-12T07:41:43.752Z,3.75
2022-08-12T07:44:23.473Z,3.55
2022-08-12T07:47:04.978Z,4.75
2022-08-12T07:50:04.878Z,4.78
2022-08-12T07:52:42.519Z,4.13
2022-08-12T07:55:21.612Z,3.50
2022-08-12T07:58:03.004Z,3.47
2022-08-12T08:00:43.196Z,3.47
2022-08-12T08:03:23.098Z,3.45
2022-08-12T08:06:00.085Z,4.22
2022-08-12T08:08:36.865Z,3.00
2022-08-12T08:11:26.115Z,3.20
2022-08-12T08:14:05.089Z,2.03
2022-08-12T08:16:44.329Z,2.42
2022-08-12T08:19:23.992Z,2.60
2022-08-12T08:22:02.598Z,2.17
2022-08-12T08:24:40.220Z,2.20
2022-08-12T08:27:17.351Z,2.25
2022-08-12T08:29:54.930Z,2.35
2022-08-12T08:32:32.603Z,2.38
2022-08-12T08:35:15.024Z,2.30
2022-08-12T08:37:52.044Z,1.98
2022-08-12T08:40:41.559Z,1.65
2022-08-12T08:43:19.738Z,2.10
2022-08-12T08:45:58.498Z,1.30
2022-08-12T08:48:36.267Z,1.80
2022-08-12T08:51:15.626Z,1.65
2022-08-12T08:53:54.048Z,1.80
2022-08-12T08:56:32.467Z,2.78
2022-08-12T08:59:10.371Z,2.63
2022-08-12T09:01:47.550Z,2.30
2022-08-12T09:05:11.115Z,2.35
2022-08-12T09:07:51.400Z,2.53
2022-08-12T09:10:31.341Z,2.75
2022-08-12T09:16:20.732Z,2.90
2022-08-12T09:18:58.183Z,2.70
2022-08-12T09:21:54.645Z,3.20
2022-08-12T09:24:36.571Z,2.80
2022-08-12T09:27:16.702Z,2.50
2022-08-12T09:30:08.957Z,2.08
2022-08-12T09:33:03.815Z,2.00
2022-08-12T09:35:44.709Z,1.80
2022-08-12T09:38:27.803Z,1.73
2022-08-12T09:42:08.572Z,1.90
2022-08-12T09:44:38.406Z,1.70
2022-08-12T09:47:16.834Z,1.70
2022-08-12T09:50:06.568Z,2.80
2022-08-12T09:53:15.567Z,2.10
2022-08-12T09:56:05.798Z,2.08
2022-08-12T09:59:00.455Z,1.95
2022-08-12T10:02:43.341Z,2.00
2022-08-12T10:04:36.163Z,2.10
2022-08-12T10:07:24.836Z,1.80
2022-08-12T10:10:02.034Z,1.83
2022-08-12T10:13:07.592Z,2.15
2022-08-12T10:16:01.708Z,1.95
2022-08-12T10:18:51.736Z,1.70
2022-08-12T10:21:36.053Z,1.90
2022-08-12T10:24:20.016Z,1.67
2022-08-12T10:27:14.364Z,1.95
2022-08-12T10:30:37.439Z,2.00
2022-08-12T10:33:00.688Z,2.00
2022-08-12T10:35:41.862Z,1.83
2022-08-12T10:38:33.550Z,1.50
2022-08-12T10:41:58.393Z,1.35
2022-08-12T10:44:23.121Z,1.25
2022-08-12T10:47:01.740Z,1.23
2022-08-12T10:50:28.347Z,1.80
2022-08-12T10:53:00.414Z,1.30
2022-08-12T10:55:37.411Z,1.55
2022-08-12T10:58:28.007Z,1.40
2022-08-12T11:01:50.405Z,1.10
2022-08-12T11:04:24.947Z,0.95
2022-08-12T11:08:37.978Z,1.20
2022-08-12T11:10:10.046Z,1.33
2022-08-12T11:12:59.200Z,1.40
2022-08-12T11:16:18.985Z,1.77
2022-08-12T11:18:35.098Z,1.10
2022-08-12T11:21:16.033Z,0.95
2022-08-12T11:23:55.608Z,1.10
2022-08-12T11:26:32.697Z,1.13
2022-08-12T11:29:22.678Z,1.30
2022-08-12T11:32:02.048Z,1.10
2022-08-12T11:34:53.664Z,1.08
2022-08-12T11:37:37.828Z,1.10
2022-08-12T11:40:34.073Z,1.20
